CheckWX is a tool to help pilots better visualize weather data.  It is not intended as a substitute for an official pre-flight weather briefing.

13:48:03 UTC

KCQT METAR
Los Angeles / USC Campus Downtown Airport
Los Angeles, California, USA
Current

56 mins ago

KCQT 211252Z AUTO 00000KT 10SM CLR 19/15 A2988 RMK AO2 SLP114 T01890150
Observed
Sep-21 @ 12:52 UTC
Visibility
10 SM
Flight Rules
VFR
Cloud Levels
  • Clear skies
Temperature
19°C / 66°F
Dewpoint
15°C / 59°F
Humidity
78%
Altimeter
29.88" Hg
Pressure
1011.82 hPa
Previous

2 hours ago

KCQT 211152Z AUTO 00000KT 10SM CLR 18/14 A2986 RMK AO2 SLP110 T01830144 10211 20183 56004
Observed
Sep-21 @ 11:52 UTC
Visibility
10 SM
Flight Rules
VFR
Cloud Levels
  • Clear skies
Temperature
18°C / 64°F
Dewpoint
14°C / 57°F
Humidity
78%
Altimeter
29.86" Hg
Pressure
1011.22 hPa
Previous

3 hours ago

KCQT 211052Z AUTO 00000KT 10SM CLR 19/15 A2987 RMK AO2 SLP111 T01890150
Observed
Sep-21 @ 10:52 UTC
Visibility
10 SM
Flight Rules
VFR
Cloud Levels
  • Clear skies
Temperature
19°C / 66°F
Dewpoint
15°C / 59°F
Humidity
78%
Altimeter
29.87" Hg
Pressure
1011.52 hPa